Hovedside
METAR-TAF:

METAR-TAF

Lufthavner :

Kristiansand lufthavn. Kjevik

Kristiansand, Norge

breddegrad: 58-12N, lengdegrad: 008-05E, høyde over havet: 1 m

Gjeldene værobservasjon

Denne rapporten ble laget for 12 minutter siden, klokken 01:20 UTC
Vind 11 kt fra Vest-sørvest
Temperatur 8°C
Luftfuktighet 93%
Trykk 1016 hPa
Sikt 10 km eller mer

METAR: ENCN 230120Z AUTO 24011KT 9999 OVC009/// 08/07 Q1016

Tid: 02:32 (01:32 UTC)

Varsel

Denne rapporten ble laget for 8 timer og 32 minutter siden, klokken 17:00 UTC
Varsel gyldig fra 22. klokken 18 UTC til 22. klokken 22 UTC
Vind 12 kt fra Sør-sørvest
Sikt: 6000 m
Spredte skyer i en høyde av 200 ft
Brutte skyer i en høyde av 500 ft
lett duskregn
Midlertidig
fra 22. klokken 18 UTC til 22. klokken 22 UTC
Vind 15 kt fra Sør-sørvest med vindkast opp mot 25 kt
Sikt: 1200 m
Overskyet i en høyde av 200 ft
duskregn, regn, dis

TAF: ENCN 221700Z 2218/2222 21012KT 6000 -DZ SCT002 BKN005 TEMPO 2218/2222 20015G25KT 1200 DZRA BR OVC002

Værobservasjoner og værvarsel for over 4000 flyplasser (METAR- og TAF-rapporter).

Tilgjengelige stasjoner er representert av de røde og gule prikkene på kartet.

Hold musepekeren over prikken for å se navnet på stasjonen.

Klikk så for å se værobservasjoner og -varsler.

For å forandre kartet kan du klikke på den grønne knappen med svart kryss for å zoome inn, på den grønne knappen med strek for å zoome ut, eller på de grønne pilene for å se tilstøtende kart.


METAR-TAF: